Time;durP1;ratioP1;P1;durP2;ratioP2;P2;SDS_P1;SDS_P2;PMS_P1;PMS_P2;Temp;Humidity;BMP_temperature;BMP_pressure;BME280_temperature;BME280_humidity;BME280_pressure;Samples;Min_cycle;Max_cycle;Signal;HPM_P1;HPM_P2
2023/05/14 00:00:28;;;;;;;78.60;53.73;;;13.10;99.90;;;;;;4974283;28;20201;-78
2023/05/14 00:03:14;;;;;;;71.13;51.97;;;13.20;99.90;;;;;;4977517;28;20225;-79
2023/05/14 00:06:24;;;;;;;74.53;52.63;;;13.10;99.90;;;;;;4976765;28;20183;-80
2023/05/14 00:09:18;;;;;;;77.43;53.00;;;13.20;99.90;;;;;;4974864;28;20162;-78
2023/05/14 00:12:01;;;;;;;74.10;54.27;;;13.40;99.90;;;;;;4973436;29;20737;-79
2023/05/14 00:21:50;;;;;;;75.63;55.20;;;13.20;99.90;;;;;;4979754;29;20209;-78
2023/05/14 00:28:37;;;;;;;77.83;53.23;;;13.20;99.90;;;;;;4976896;28;20193;-79
2023/05/14 00:34:35;;;;;;;78.33;53.37;;;13.00;99.90;;;;;;4977429;28;20203;-79
2023/05/14 00:40:57;;;;;;;85.73;56.73;;;13.10;99.90;;;;;;4977560;28;20225;-79
2023/05/14 00:44:15;;;;;;;82.60;55.37;;;13.30;99.90;;;;;;4979057;28;20221;-79
2023/05/14 00:50:36;;;;;;;82.00;55.10;;;13.30;99.90;;;;;;4981241;28;20259;-78
2023/05/14 00:56:26;;;;;;;80.67;56.20;;;13.10;99.90;;;;;;4979543;28;20182;-79
2023/05/14 00:59:26;;;;;;;80.63;54.50;;;13.10;99.90;;;;;;4976021;29;20703;-78
2023/05/14 01:05:16;;;;;;;82.53;55.73;;;13.10;99.90;;;;;;4979218;29;20209;-78
2023/05/14 01:08:14;;;;;;;86.80;56.67;;;13.00;99.90;;;;;;4977903;29;20191;-77
2023/05/14 01:17:19;;;;;;;85.30;57.47;;;13.10;99.90;;;;;;4977122;28;20204;-79
2023/05/14 01:23:27;;;;;;;95.20;59.70;;;13.10;99.90;;;;;;4974328;29;20267;-79
2023/05/14 01:29:53;;;;;;;88.30;56.90;;;12.90;99.90;;;;;;4972961;29;20211;-80
2023/05/14 01:33:08;;;;;;;96.23;58.67;;;12.90;99.90;;;;;;4973638;29;20169;-79
2023/05/14 01:35:43;;;;;;;91.77;59.47;;;13.10;99.90;;;;;;4974354;28;20179;-79
2023/05/14 01:38:48;;;;;;;100.40;60.17;;;13.10;99.90;;;;;;4974641;29;20641;-80
2023/05/14 01:45:09;;;;;;;93.17;59.23;;;12.90;99.90;;;;;;4973363;28;20258;-79
2023/05/14 01:51:24;;;;;;;93.90;57.40;;;13.00;99.90;;;;;;4972141;29;20260;-79
2023/05/14 01:57:14;;;;;;;89.80;56.73;;;12.90;99.90;;;;;;4976415;28;20175;-79
2023/05/14 02:00:15;;;;;;;88.17;56.30;;;13.00;99.90;;;;;;4974827;28;20176;-79
2023/05/14 02:03:28;;;;;;;94.77;57.70;;;13.00;99.90;;;;;;4975657;29;20204;-79
2023/05/14 02:06:52;;;;;;;87.87;54.90;;;13.00;99.90;;;;;;4975323;29;20200;-79
2023/05/14 02:09:36;;;;;;;93.43;56.77;;;13.10;99.90;;;;;;4976280;28;20155;-78
2023/05/14 02:12:26;;;;;;;92.33;58.47;;;13.10;99.90;;;;;;4974239;28;20162;-79
2023/05/14 02:15:23;;;;;;;93.27;57.47;;;13.10;99.90;;;;;;4977353;28;20167;-78
2023/05/14 02:18:01;;;;;;;89.37;56.40;;;13.10;99.90;;;;;;4977068;29;20156;-80
2023/05/14 02:20:40;;;;;;;89.40;57.50;;;13.20;99.90;;;;;;4974337;28;20145;-79
2023/05/14 02:30:27;;;;;;;80.23;53.23;;;13.10;99.90;;;;;;4975232;29;20210;-79
2023/05/14 02:33:03;;;;;;;84.30;54.60;;;13.20;99.90;;;;;;4974375;28;20189;-78
2023/05/14 02:35:57;;;;;;;83.50;54.77;;;13.30;99.90;;;;;;4972524;28;20167;-78
2023/05/14 02:41:48;;;;;;;85.90;54.43;;;13.20;99.90;;;;;;4974775;29;20257;-79
2023/05/14 02:48:16;;;;;;;86.90;54.33;;;13.00;99.90;;;;;;4914974;29;20195;-79
2023/05/14 02:54:43;;;;;;;88.20;56.50;;;13.10;99.90;;;;;;4916402;29;20199;-80
2023/05/14 02:57:39;;;;;;;85.23;55.17;;;13.30;99.90;;;;;;4916311;29;20173;-79
2023/05/14 03:00:14;;;;;;;92.57;56.10;;;13.20;99.90;;;;;;4918811;29;20585;-79
2023/05/14 03:03:20;;;;;;;93.93;57.47;;;13.20;99.90;;;;;;4921488;29;20269;-79
2023/05/14 03:05:49;;;;;;;89.57;58.50;;;13.00;99.90;;;;;;4920449;29;20165;-79
2023/05/14 03:08:51;;;;;;;86.43;55.50;;;12.90;99.90;;;;;;4923065;29;20176;-79
2023/05/14 03:18:05;;;;;;;89.50;57.60;;;13.00;99.90;;;;;;4919663;29;20224;-79
2023/05/14 03:21:26;;;;;;;93.93;59.00;;;13.00;99.90;;;;;;4917559;29;20161;-78
2023/05/14 03:24:01;;;;;;;89.43;54.43;;;12.90;99.90;;;;;;4980331;28;20226;-78
2023/05/14 03:33:49;;;;;;;93.10;56.40;;;13.00;99.90;;;;;;4975440;29;20177;-78
2023/05/14 03:36:36;;;;;;;84.90;56.33;;;12.90;99.90;;;;;;4974726;29;20172;-78
2023/05/14 03:39:18;;;;;;;86.43;54.00;;;13.00;99.90;;;;;;4974918;28;20218;-78
2023/05/14 03:45:18;;;;;;;89.10;57.37;;;12.90;99.90;;;;;;4982668;28;20178;-77
2023/05/14 03:54:21;;;;;;;83.30;54.27;;;13.00;99.90;;;;;;4979121;29;20181;-78
2023/05/14 03:57:04;;;;;;;86.80;56.00;;;12.80;99.90;;;;;;4972584;29;20199;-78
2023/05/14 03:59:57;;;;;;;83.50;55.87;;;12.90;99.90;;;;;;4974701;28;20164;-79
2023/05/14 04:02:56;;;;;;;85.63;55.80;;;12.90;99.90;;;;;;4978605;29;20200;-78
2023/05/14 04:06:01;;;;;;;87.67;56.20;;;12.80;99.90;;;;;;4975807;29;20200;-79
2023/05/14 04:12:12;;;;;;;83.63;53.87;;;12.80;99.90;;;;;;4976459;29;20192;-78
2023/05/14 04:18:04;;;;;;;82.37;53.33;;;13.10;99.90;;;;;;4975991;29;20171;-78
2023/05/14 04:23:59;;;;;;;80.43;49.87;;;12.90;99.90;;;;;;4975001;29;20308;-79
2023/05/14 04:26:31;;;;;;;81.20;52.23;;;12.90;99.90;;;;;;4963674;28;20182;-79
2023/05/14 04:29:08;;;;;;;82.07;52.97;;;12.90;99.90;;;;;;4960763;29;20272;-79
2023/05/14 04:35:08;;;;;;;85.83;51.67;;;13.10;99.90;;;;;;4976300;29;20681;-77
2023/05/14 04:41:53;;;;;;;79.77;50.90;;;13.10;99.90;;;;;;4977399;29;20183;-79
2023/05/14 04:47:55;;;;;;;81.93;53.03;;;12.90;99.90;;;;;;4974822;29;20216;-78
2023/05/14 04:50:35;;;;;;;79.67;50.27;;;13.00;99.90;;;;;;4972895;28;20200;-80
2023/05/14 04:53:54;;;;;;;80.60;54.17;;;13.00;99.90;;;;;;4973847;28;20149;-79
2023/05/14 05:00:16;;;;;;;80.00;52.27;;;13.00;99.90;;;;;;4974215;29;20170;-79
2023/05/14 05:03:36;;;;;;;86.73;53.80;;;13.00;99.90;;;;;;4975935;29;20177;-79
2023/05/14 05:06:52;;;;;;;79.63;52.13;;;13.00;99.90;;;;;;4977028;29;20169;-78
2023/05/14 05:09:53;;;;;;;76.37;51.73;;;12.80;99.90;;;;;;4976461;28;20643;-79
2023/05/14 05:12:28;;;;;;;88.17;55.70;;;12.80;99.90;;;;;;4972469;28;20213;-79
2023/05/14 05:18:36;;;;;;;81.10;52.90;;;12.90;99.90;;;;;;4975907;28;20216;-78
2023/05/14 05:21:03;;;;;;;83.40;50.27;;;12.80;99.90;;;;;;4974820;28;20165;-78
2023/05/14 05:24:12;;;;;;;82.73;53.27;;;12.90;99.90;;;;;;4975133;28;20302;-78
2023/05/14 05:30:02;;;;;;;84.83;51.30;;;13.20;99.90;;;;;;4996291;28;20174;-78
2023/05/14 05:33:00;;;;;;;76.93;49.37;;;13.10;99.90;;;;;;4992460;28;20178;-80
2023/05/14 05:38:48;;;;;;;77.97;47.10;;;12.80;99.90;;;;;;4995634;28;20169;-79
2023/05/14 05:41:43;;;;;;;83.63;53.73;;;12.80;99.90;;;;;;4993872;28;20184;-78
2023/05/14 05:44:59;;;;;;;80.03;52.97;;;12.90;99.90;;;;;;4992845;28;20197;-80
2023/05/14 05:47:25;;;;;;;79.77;50.87;;;13.00;99.90;;;;;;4993431;28;20153;-79
2023/05/14 05:50:10;;;;;;;73.43;49.57;;;12.90;99.90;;;;;;4994568;28;20223;-79
2023/05/14 05:53:21;;;;;;;82.70;51.47;;;13.00;99.90;;;;;;4991480;28;20174;-78
2023/05/14 05:56:24;;;;;;;75.10;49.47;;;13.20;99.90;;;;;;4993324;28;20210;-79
2023/05/14 05:59:11;;;;;;;82.40;51.10;;;13.10;99.90;;;;;;4994972;28;20171;-79
2023/05/14 06:05:33;;;;;;;70.33;46.97;;;13.10;99.90;;;;;;4993616;28;20198;-79
2023/05/14 06:08:26;;;;;;;80.30;49.53;;;13.00;99.90;;;;;;4992349;28;20168;-79
2023/05/14 06:18:41;;;;;;;71.40;46.07;;;12.90;99.90;;;;;;4998865;28;20169;-75
2023/05/14 06:21:44;;;;;;;66.40;45.63;;;12.80;99.90;;;;;;4993713;28;20158;-79
2023/05/14 06:28:07;;;;;;;66.43;46.47;;;12.80;99.90;;;;;;4993270;28;20250;-78
2023/05/14 06:31:46;;;;;;;73.43;47.50;;;12.90;99.90;;;;;;4996387;28;20193;-78
2023/05/14 06:34:50;;;;;;;68.27;46.90;;;13.10;99.90;;;;;;4999061;28;20213;-79
2023/05/14 06:41:12;;;;;;;60.03;43.23;;;13.10;99.90;;;;;;5000307;28;20230;-79
2023/05/14 06:50:55;;;;;;;65.60;44.97;;;13.10;99.90;;;;;;4996547;28;20168;-78
2023/05/14 06:53:28;;;;;;;68.67;43.50;;;13.10;99.90;;;;;;4993156;28;20192;-78
2023/05/14 06:56:13;;;;;;;58.50;41.10;;;13.10;99.90;;;;;;4997015;28;20176;-79
2023/05/14 06:59:20;;;;;;;61.77;42.20;;;12.90;99.90;;;;;;4996500;28;20255;-79
2023/05/14 07:11:58;;;;;;;62.07;43.43;;;13.00;99.90;;;;;;4996682;28;20217;-79
2023/05/14 07:15:02;;;;;;;67.60;44.17;;;13.00;99.90;;;;;;4996098;28;20203;-79
2023/05/14 07:18:05;;;;;;;65.83;45.53;;;13.10;99.90;;;;;;4989381;28;20180;-81
2023/05/14 07:20:56;;;;;;;65.30;45.83;;;13.10;99.90;;;;;;4980159;28;20160;-79
2023/05/14 07:26:44;;;;;;;61.30;42.80;;;13.20;99.90;;;;;;4980746;28;20195;-80
2023/05/14 07:29:09;;;;;;;62.93;42.63;;;13.00;99.90;;;;;;4979153;28;20177;-79
2023/05/14 07:32:01;;;;;;;62.33;42.77;;;13.20;99.90;;;;;;4978247;28;20642;-79
2023/05/14 07:37:49;;;;;;;53.97;40.50;;;13.40;99.90;;;;;;4980494;28;20655;-78
2023/05/14 07:41:05;;;;;;;61.37;42.47;;;13.30;99.90;;;;;;4982223;28;20255;-79
2023/05/14 07:43:40;;;;;;;59.77;43.00;;;13.20;99.90;;;;;;4981257;28;20205;-79
2023/05/14 07:46:28;;;;;;;56.57;42.90;;;13.30;99.90;;;;;;4981471;28;20166;-82
2023/05/14 07:49:08;;;;;;;53.80;42.27;;;13.30;99.90;;;;;;4991174;28;20207;-78
2023/05/14 07:51:39;;;;;;;53.97;41.50;;;13.40;99.90;;;;;;4991658;28;20172;-79
2023/05/14 07:54:16;;;;;;;56.53;42.90;;;13.40;99.90;;;;;;4989735;28;20631;-83
2023/05/14 07:56:44;;;;;;;56.00;41.13;;;13.50;99.90;;;;;;4990042;28;20159;-80
2023/05/14 07:59:13;;;;;;;50.23;38.60;;;13.50;99.90;;;;;;4988901;28;20242;-78
2023/05/14 08:01:53;;;;;;;52.00;39.40;;;13.50;99.90;;;;;;4985605;28;20178;-77
2023/05/14 08:04:37;;;;;;;52.70;40.60;;;13.50;99.90;;;;;;4987545;28;20210;-77
2023/05/14 08:10:55;;;;;;;53.13;40.27;;;13.70;99.90;;;;;;4990027;28;20213;-78
2023/05/14 08:13:59;;;;;;;58.00;41.23;;;13.70;99.90;;;;;;4987243;28;20178;-79
2023/05/14 08:16:35;;;;;;;49.63;38.73;;;13.60;99.90;;;;;;4990716;28;20176;-80
2023/05/14 08:19:07;;;;;;;52.83;40.03;;;13.50;99.90;;;;;;4992791;28;20169;-81
2023/05/14 08:22:02;;;;;;;48.73;38.47;;;13.60;99.90;;;;;;4990886;28;20199;-80
2023/05/14 08:24:31;;;;;;;51.37;40.10;;;13.70;99.90;;;;;;4989110;28;20206;-81
2023/05/14 08:26:57;;;;;;;45.67;38.27;;;13.70;99.90;;;;;;4988163;28;20164;-80
2023/05/14 08:29:24;;;;;;;47.30;37.73;;;13.80;99.90;;;;;;4989246;28;20238;-80
2023/05/14 08:31:54;;;;;;;46.67;36.93;;;13.80;99.90;;;;;;4993468;28;20631;-79
2023/05/14 08:34:21;;;;;;;45.23;36.63;;;13.90;99.90;;;;;;4990937;28;20185;-85
2023/05/14 08:37:00;;;;;;;43.37;36.87;;;14.00;99.90;;;;;;4987174;28;20225;-80
2023/05/14 08:39:27;;;;;;;44.97;32.90;;;14.10;99.90;;;;;;4986375;28;20203;-80
2023/05/14 08:41:54;;;;;;;42.07;34.77;;;14.10;99.90;;;;;;4984220;28;20174;-94
2023/05/14 08:44:43;;;;;;;39.40;33.63;;;14.20;99.90;;;;;;4987996;28;20218;-83
2023/05/14 08:47:17;;;;;;;39.80;33.47;;;14.10;99.90;;;;;;4998007;28;20208;-86
2023/05/14 08:49:46;;;;;;;39.83;33.70;;;14.20;99.90;;;;;;4994196;28;20215;-81
2023/05/14 08:52:24;;;;;;;41.20;34.30;;;14.10;99.90;;;;;;4985415;28;20184;-83
2023/05/14 08:55:02;;;;;;;42.07;33.47;;;14.10;99.90;;;;;;4986676;28;20168;-81
2023/05/14 08:57:30;;;;;;;40.00;33.60;;;14.20;99.90;;;;;;4984896;28;20166;-81
2023/05/14 08:59:58;;;;;;;40.50;33.60;;;14.20;99.90;;;;;;4982709;28;20188;-82
2023/05/14 09:02:40;;;;;;;35.50;31.03;;;14.20;99.90;;;;;;4985746;28;20158;-82
2023/05/14 09:05:14;;;;;;;38.43;32.70;;;14.30;99.90;;;;;;4988440;28;20169;-80
2023/05/14 09:07:51;;;;;;;40.87;32.87;;;14.40;99.90;;;;;;4984732;28;20163;-80
2023/05/14 09:10:21;;;;;;;38.93;32.63;;;14.70;99.90;;;;;;4985031;28;20168;-80
2023/05/14 09:12:47;;;;;;;33.13;29.70;;;14.80;99.50;;;;;;4991929;28;20159;-84
2023/05/14 09:15:13;;;;;;;34.23;30.53;;;14.70;98.10;;;;;;4999080;28;20175;-81
2023/05/14 09:17:38;;;;;;;33.17;29.60;;;14.80;97.80;;;;;;4991532;28;20187;-81
2023/05/14 09:20:07;;;;;;;33.40;29.80;;;14.80;95.10;;;;;;4979677;28;20259;-80
2023/05/14 09:22:39;;;;;;;31.67;28.33;;;14.80;95.20;;;;;;4978029;28;20346;-80
2023/05/14 09:25:11;;;;;;;31.90;28.40;;;14.90;94.70;;;;;;4990061;28;20170;-82
2023/05/14 09:27:49;;;;;;;35.03;28.30;;;14.80;93.20;;;;;;4991109;28;20162;-81
2023/05/14 09:30:20;;;;;;;32.77;27.83;;;14.70;95.10;;;;;;4987907;28;20183;-83
2023/05/14 09:32:48;;;;;;;33.97;29.40;;;14.80;95.50;;;;;;4988574;28;20223;-80
2023/05/14 09:35:48;;;;;;;33.33;28.17;;;15.00;94.70;;;;;;4998170;28;20197;-78
2023/05/14 09:38:31;;;;;;;31.97;28.07;;;15.10;92.50;;;;;;4993597;28;20232;-79
2023/05/14 09:47:44;;;;;;;32.47;27.70;;;15.20;92.00;;;;;;4986461;28;20194;-79
2023/05/14 09:50:10;;;;;;;32.77;29.00;;;15.30;91.10;;;;;;4985479;28;20633;-81
2023/05/14 09:52:37;;;;;;;31.50;28.03;;;15.30;92.20;;;;;;4987343;28;20180;-80
2023/05/14 09:55:05;;;;;;;30.63;27.47;;;15.40;91.20;;;;;;4990999;28;20167;-83
2023/05/14 09:57:34;;;;;;;35.00;28.63;;;15.50;91.00;;;;;;4988601;28;20207;-82
2023/05/14 10:00:11;;;;;;;33.80;29.30;;;15.60;90.00;;;;;;4990105;28;20230;-86
2023/05/14 10:02:45;;;;;;;31.33;27.93;;;15.50;84.90;;;;;;4985567;28;20221;-81
2023/05/14 10:05:12;;;;;;;33.33;29.60;;;15.60;87.70;;;;;;4983952;28;20176;-82
2023/05/14 10:07:46;;;;;;;32.30;28.90;;;15.60;90.50;;;;;;4982782;28;20583;-82
2023/05/14 10:10:26;;;;;;;32.53;29.00;;;15.40;90.90;;;;;;4979934;28;20282;-81
2023/05/14 10:12:57;;;;;;;31.70;27.40;;;15.50;90.40;;;;;;4978168;28;20842;-83
2023/05/14 10:15:32;;;;;;;33.10;28.27;;;15.40;90.60;;;;;;4977644;28;20203;-80
2023/05/14 10:18:06;;;;;;;32.20;27.03;;;15.50;91.60;;;;;;4976390;28;20906;-80
2023/05/14 10:20:33;;;;;;;30.80;27.60;;;15.60;90.40;;;;;;4975765;28;20225;-81
2023/05/14 10:23:00;;;;;;;32.73;27.83;;;15.70;88.00;;;;;;4977391;28;20263;-80
2023/05/14 10:25:26;;;;;;;28.67;25.77;;;15.70;86.00;;;;;;4977358;28;20191;-80
2023/05/14 10:27:53;;;;;;;31.60;26.07;;;15.90;82.40;;;;;;4978391;28;20544;-80
2023/05/14 10:30:24;;;;;;;30.30;26.30;;;15.90;78.10;;;;;;4980063;28;20163;-82
2023/05/14 10:33:08;;;;;;;27.57;23.83;;;15.90;80.10;;;;;;4975887;28;20247;-81
2023/05/14 10:35:50;;;;;;;29.20;26.20;;;15.80;83.90;;;;;;4977132;28;20258;-81
2023/05/14 10:38:15;;;;;;;30.90;27.50;;;15.70;85.40;;;;;;4977685;28;20187;-80
2023/05/14 10:40:41;;;;;;;28.57;25.53;;;15.80;86.20;;;;;;4980758;28;20167;-84
2023/05/14 10:43:10;;;;;;;28.80;25.80;;;16.00;85.40;;;;;;4982470;28;20211;-81
2023/05/14 10:45:36;;;;;;;28.43;25.23;;;16.20;84.30;;;;;;4988764;28;20327;-88
2023/05/14 10:48:02;;;;;;;30.23;26.93;;;16.40;77.80;;;;;;4992105;28;20203;-89
2023/05/14 10:50:30;;;;;;;30.33;26.60;;;16.20;74.90;;;;;;4967820;28;20234;-82
2023/05/14 10:52:59;;;;;;;27.73;24.83;;;16.60;73.50;;;;;;4979930;28;20164;-80
2023/05/14 10:55:27;;;;;;;28.40;25.40;;;16.80;71.90;;;;;;4979662;28;20167;-82
2023/05/14 10:57:53;;;;;;;25.70;23.03;;;16.80;66.10;;;;;;4976234;28;20341;-80
2023/05/14 11:00:19;;;;;;;27.80;24.80;;;16.80;66.60;;;;;;4981648;28;20247;-81
2023/05/14 11:02:57;;;;;;;29.13;25.83;;;16.90;42.10;;;;;;4990582;28;20214;-88
2023/05/14 11:05:27;;;;;;;29.77;26.03;;;17.20;35.10;;;;;;4988075;28;20178;-82
2023/05/14 11:07:57;;;;;;;28.73;25.73;;;17.40;23.00;;;;;;4969562;28;20274;-83
2023/05/14 11:10:29;;;;;;;27.67;23.93;;;17.40;22.50;;;;;;4986109;28;20266;-83
2023/05/14 11:12:58;;;;;;;27.50;22.97;;;17.10;26.20;;;;;;4988045;28;20158;-81
2023/05/14 11:15:25;;;;;;;28.80;24.57;;;16.90;29.50;;;;;;4987270;28;20259;-84
2023/05/14 11:17:53;;;;;;;26.43;23.43;;;17.00;28.80;;;;;;4968139;28;20187;-82
2023/05/14 11:20:20;;;;;;;28.00;25.20;;;17.10;25.00;;;;;;4996977;28;20153;-81
2023/05/14 11:22:47;;;;;;;28.43;25.43;;;17.40;20.80;;;;;;5000346;28;20229;-81
2023/05/14 11:25:21;;;;;;;25.37;22.53;;;17.50;17.00;;;;;;4992277;28;20181;-81
2023/05/14 11:27:49;;;;;;;27.00;22.97;;;17.50;11.20;;;;;;4993866;28;20212;-82
2023/05/14 11:30:17;;;;;;;24.03;21.00;;;17.30;16.00;;;;;;4987477;28;20183;-80
2023/05/14 11:33:07;;;;;;;26.53;23.77;;;17.10;24.20;;;;;;4985521;28;20234;-78
2023/05/14 11:35:32;;;;;;;27.47;21.57;;;17.20;29.60;;;;;;4988140;28;20212;-80
2023/05/14 11:38:02;;;;;;;26.90;24.00;;;17.50;10.40;;;;;;4992597;28;20175;-80
2023/05/14 11:40:30;;;;;;;25.77;22.97;;;17.50;14.90;;;;;;4991411;28;20217;-79
2023/05/14 11:42:56;;;;;;;26.30;22.57;;;17.60;18.10;;;;;;4992077;28;20210;-81
2023/05/14 11:45:26;;;;;;;27.03;24.13;;;17.70;19.20;;;;;;4992795;28;20185;-80
2023/05/14 11:47:53;;;;;;;27.23;24.43;;;17.90;18.60;;;;;;4990095;28;20274;-79
2023/05/14 11:50:23;;;;;;;28.73;24.37;;;18.00;10.20;;;;;;4985682;28;20176;-81
2023/05/14 11:52:56;;;;;;;24.87;22.23;;;17.80;18.90;;;;;;4989400;28;20156;-80
2023/05/14 11:55:25;;;;;;;25.83;23.13;;;17.90;13.40;;;;;;4984662;28;20160;-84
2023/05/14 11:57:53;;;;;;;26.47;23.87;;;18.00;15.40;;;;;;4983257;28;20179;-80
2023/05/14 12:00:43;;;;;;;29.23;21.70;;;17.90;12.10;;;;;;4983060;28;20168;-81
2023/05/14 12:03:15;;;;;;;25.97;23.17;;;18.00;10.90;;;;;;4983631;28;20280;-82
2023/05/14 12:05:57;;;;;;;25.53;22.87;;;18.10;5.60;;;;;;4983919;28;20235;-83
2023/05/14 12:08:32;;;;;;;28.07;22.90;;;18.10;5.50;;;;;;4982272;28;20235;-88
2023/05/14 12:11:00;;;;;;;23.23;20.80;;;18.30;7.10;;;;;;4985004;28;20187;-86
2023/05/14 12:13:27;;;;;;;25.00;20.83;;;18.40;1.00;;;;;;4987377;28;20188;-81
2023/05/14 12:15:59;;;;;;;22.27;19.90;;;18.50;1.00;;;;;;5000310;28;20168;-80
2023/05/14 12:18:29;;;;;;;22.60;20.17;;;18.40;1.00;;;;;;4981867;28;20168;-80
2023/05/14 12:21:07;;;;;;;22.43;19.97;;;18.20;1.00;;;;;;4980008;28;20159;-81
2023/05/14 12:23:38;;;;;;;24.33;20.47;;;18.30;1.00;;;;;;4978910;28;20643;-80
2023/05/14 12:26:15;;;;;;;23.73;21.40;;;18.30;1.00;;;;;;4978246;28;20228;-81
2023/05/14 12:29:01;;;;;;;25.37;21.70;;;18.50;1.00;;;;;;4978638;28;20244;-80
2023/05/14 12:31:29;;;;;;;22.27;19.97;;;18.70;1.00;;;;;;4976671;28;20683;-81
2023/05/14 12:33:56;;;;;;;27.70;22.17;;;18.80;1.00;;;;;;4978182;28;20177;-81
2023/05/14 12:36:22;;;;;;;22.93;20.37;;;18.90;1.00;;;;;;4999682;28;20200;-80
2023/05/14 12:38:49;;;;;;;21.90;19.60;;;19.10;1.00;;;;;;4994080;28;20272;-80
2023/05/14 12:41:16;;;;;;;25.17;21.17;;;19.10;1.00;;;;;;4991239;28;20474;-79
2023/05/14 12:43:46;;;;;;;22.97;20.53;;;19.10;1.00;;;;;;4984467;28;20227;-82
2023/05/14 12:46:15;;;;;;;23.10;20.50;;;19.30;1.00;;;;;;4977415;28;20181;-88
2023/05/14 12:48:41;;;;;;;23.80;20.93;;;19.30;1.00;;;;;;4983046;28;20194;-84
2023/05/14 12:51:07;;;;;;;22.50;20.17;;;19.40;1.00;;;;;;4981397;28;20199;-80
2023/05/14 12:53:34;;;;;;;22.97;20.47;;;19.50;1.00;;;;;;4979251;28;20220;-86
2023/05/14 12:56:00;;;;;;;23.37;21.13;;;19.50;1.00;;;;;;4976803;28;20196;-79
2023/05/14 12:58:25;;;;;;;24.90;22.37;;;19.50;1.00;;;;;;4975949;28;20528;-81
2023/05/14 13:00:52;;;;;;;23.63;21.13;;;19.50;1.00;;;;;;4987554;28;20166;-81
2023/05/14 13:03:18;;;;;;;22.70;20.47;;;19.40;1.00;;;;;;4986914;28;20213;-84
2023/05/14 13:05:43;;;;;;;23.60;21.30;;;19.50;1.00;;;;;;4983658;28;20189;-82
2023/05/14 13:08:09;;;;;;;22.87;19.63;;;19.60;1.00;;;;;;4980618;28;20179;-83
2023/05/14 13:10:35;;;;;;;24.20;20.30;;;19.60;1.00;;;;;;4979752;28;20174;-79
2023/05/14 13:13:01;;;;;;;22.27;20.03;;;19.90;1.00;;;;;;4973855;28;20193;-80
2023/05/14 13:15:27;;;;;;;24.30;20.10;;;19.90;1.00;;;;;;4975247;28;20674;-81
2023/05/14 13:17:53;;;;;;;21.60;19.27;;;19.90;1.00;;;;;;4974943;28;20174;-79
2023/05/14 13:20:19;;;;;;;20.37;18.20;;;19.80;1.00;;;;;;4975314;28;20167;-82
2023/05/14 13:22:44;;;;;;;22.07;19.53;;;20.00;1.00;;;;;;4973303;28;20534;-79
2023/05/14 13:25:10;;;;;;;18.77;16.77;;;20.20;1.00;;;;;;4974034;28;20210;-80
2023/05/14 13:27:36;;;;;;;19.27;17.33;;;20.30;1.00;;;;;;4975042;28;20190;-79
2023/05/14 13:30:03;;;;;;;19.90;16.47;;;20.10;1.00;;;;;;4975715;28;20257;-80
2023/05/14 13:32:29;;;;;;;18.63;16.43;;;20.00;1.00;;;;;;4975066;28;20163;-79
2023/05/14 13:34:55;;;;;;;21.57;19.30;;;20.00;1.00;;;;;;4975502;28;20226;-81
2023/05/14 13:37:21;;;;;;;19.27;17.27;;;20.10;1.00;;;;;;4976071;28;20171;-80
2023/05/14 13:39:46;;;;;;;19.17;17.27;;;20.20;1.00;;;;;;4975201;28;20183;-79
2023/05/14 13:42:13;;;;;;;19.23;16.50;;;20.50;1.00;;;;;;4976818;28;20170;-79
2023/05/14 13:44:39;;;;;;;20.50;18.20;;;20.30;1.00;;;;;;4984490;28;20231;-85
2023/05/14 13:47:05;;;;;;;18.60;16.73;;;20.50;1.00;;;;;;4994271;28;20174;-80
2023/05/14 13:49:31;;;;;;;19.87;17.53;;;20.60;1.00;;;;;;4990813;28;20592;-86
2023/05/14 13:51:57;;;;;;;19.00;16.57;;;20.40;1.00;;;;;;4989732;28;20167;-83
2023/05/14 13:54:22;;;;;;;16.67;15.07;;;20.30;1.00;;;;;;4987363;28;20254;-86
2023/05/14 13:56:48;;;;;;;17.50;15.43;;;20.30;1.00;;;;;;4982843;28;20178;-90
2023/05/14 13:59:14;;;;;;;18.23;16.30;;;20.30;1.00;;;;;;4981233;28;20182;-90
2023/05/14 14:01:42;;;;;;;17.47;15.77;;;20.50;1.00;;;;;;4981672;28;20182;-90
2023/05/14 14:04:08;;;;;;;16.87;15.17;;;20.70;1.00;;;;;;4982607;28;20239;-90
2023/05/14 14:06:34;;;;;;;20.23;16.27;;;20.80;1.00;;;;;;4983642;28;20565;-88
2023/05/14 14:09:00;;;;;;;18.20;15.17;;;20.70;1.00;;;;;;4982799;28;20238;-84
2023/05/14 14:11:26;;;;;;;16.83;15.13;;;20.60;1.00;;;;;;4975801;28;20164;-83
2023/05/14 14:13:52;;;;;;;17.40;14.77;;;20.60;1.00;;;;;;4976000;28;20639;-81
2023/05/14 14:16:18;;;;;;;16.60;14.87;;;20.70;1.00;;;;;;4983614;28;20200;-85
2023/05/14 14:18:44;;;;;;;18.10;14.30;;;20.80;1.00;;;;;;4983526;28;20180;-87
2023/05/14 14:21:10;;;;;;;19.07;15.10;;;21.10;1.00;;;;;;4976663;28;20310;-81
2023/05/14 14:23:35;;;;;;;16.50;14.37;;;20.80;1.00;;;;;;4975058;28;20207;-82
2023/05/14 14:26:01;;;;;;;15.50;13.87;;;20.90;1.00;;;;;;4974164;28;20171;-84
2023/05/14 14:28:27;;;;;;;16.73;13.73;;;20.90;1.00;;;;;;4975401;28;20632;-80
2023/05/14 14:30:52;;;;;;;15.40;13.17;;;20.90;1.00;;;;;;4975389;28;20187;-80
2023/05/14 14:33:18;;;;;;;12.83;11.53;;;20.70;1.00;;;;;;4975867;28;20230;-81
2023/05/14 14:35:45;;;;;;;14.80;12.40;;;20.80;1.00;;;;;;4978925;28;20205;-91
2023/05/14 14:38:11;;;;;;;13.67;11.73;;;20.80;1.00;;;;;;4979983;28;20203;-89
2023/05/14 14:40:37;;;;;;;15.70;12.07;;;20.90;1.00;;;;;;4978054;28;20172;-92
2023/05/14 14:43:02;;;;;;;15.40;12.77;;;20.80;1.00;;;;;;4980257;28;20204;-86
2023/05/14 14:45:28;;;;;;;15.70;12.67;;;20.90;1.00;;;;;;4977513;28;20188;-82
2023/05/14 14:48:36;;;;;;;14.97;12.17;;;20.80;1.00;;;;;;4975029;28;20216;-83
2023/05/14 14:51:03;;;;;;;13.10;11.07;;;20.90;1.00;;;;;;4973338;28;20180;-80
2023/05/14 14:53:29;;;;;;;16.30;12.13;;;21.00;1.00;;;;;;4974771;28;20179;-79
2023/05/14 14:55:56;;;;;;;12.80;11.47;;;21.00;1.00;;;;;;4985216;28;20172;-84
2023/05/14 14:58:23;;;;;;;15.97;12.53;;;21.00;1.00;;;;;;4985275;28;20172;-81
2023/05/14 15:00:53;;;;;;;13.60;12.20;;;20.90;1.00;;;;;;4981282;28;20235;-87
2023/05/14 15:03:20;;;;;;;14.70;12.23;;;20.70;1.00;;;;;;4981370;28;20201;-81
2023/05/14 15:05:46;;;;;;;14.73;13.23;;;20.70;1.00;;;;;;4981223;28;20229;-91
2023/05/14 15:08:13;;;;;;;13.00;11.70;;;20.80;1.00;;;;;;4981892;28;20176;-84
2023/05/14 15:10:40;;;;;;;14.10;12.10;;;20.80;1.00;;;;;;4980325;28;20171;-85
2023/05/14 15:13:07;;;;;;;14.13;11.83;;;20.70;1.00;;;;;;4977755;28;20169;-81
2023/05/14 15:15:34;;;;;;;16.27;10.73;;;20.70;1.00;;;;;;4977774;28;20601;-81
2023/05/14 15:18:00;;;;;;;12.07;10.73;;;20.70;1.00;;;;;;4979785;28;20196;-80
2023/05/14 15:20:25;;;;;;;14.40;11.17;;;20.60;1.00;;;;;;4996748;28;20183;-79
2023/05/14 15:22:52;;;;;;;14.20;11.33;;;20.40;1.00;;;;;;4983376;28;20671;-80
2023/05/14 15:25:20;;;;;;;11.47;10.27;;;20.40;1.00;;;;;;4986590;28;20202;-85
2023/05/14 15:27:49;;;;;;;14.80;11.30;;;20.30;1.00;;;;;;4990789;28;20187;-90
2023/05/14 15:30:18;;;;;;;15.90;11.10;;;20.10;1.00;;;;;;4985688;28;20170;-80
2023/05/14 15:32:45;;;;;;;13.77;11.33;;;19.90;1.00;;;;;;4985388;28;20189;-86
2023/05/14 15:35:11;;;;;;;15.40;11.73;;;19.80;1.00;;;;;;4981038;28;20258;-81
2023/05/14 15:37:41;;;;;;;18.40;13.43;;;19.80;1.00;;;;;;4983687;28;20588;-80
2023/05/14 15:40:07;;;;;;;21.60;15.50;;;19.70;1.00;;;;;;4985880;28;20174;-79
2023/05/14 15:42:38;;;;;;;18.43;16.17;;;19.60;1.00;;;;;;4992346;28;20259;-80
2023/05/14 15:45:04;;;;;;;21.83;16.50;;;19.40;1.00;;;;;;4985919;28;20251;-81
2023/05/14 15:47:31;;;;;;;21.33;17.77;;;19.30;1.00;;;;;;4977719;28;20177;-81
2023/05/14 15:49:58;;;;;;;19.40;15.97;;;19.20;1.00;;;;;;4979469;28;20169;-88
2023/05/14 15:52:27;;;;;;;22.07;16.43;;;19.10;1.00;;;;;;4983817;28;20176;-89
2023/05/14 15:54:54;;;;;;;18.10;16.07;;;19.00;1.00;;;;;;4988932;28;20182;-83
2023/05/14 15:57:20;;;;;;;21.67;16.00;;;18.90;1.00;;;;;;4992896;28;20254;-77
2023/05/14 15:59:46;;;;;;;24.77;18.37;;;18.70;1.00;;;;;;4987377;28;20251;-80
2023/05/14 16:02:13;;;;;;;21.63;17.63;;;18.50;1.00;;;;;;4978087;28;20660;-79
2023/05/14 16:04:39;;;;;;;23.77;15.13;;;18.50;4.70;;;;;;4975741;28;20330;-81
2023/05/14 16:07:08;;;;;;;18.73;16.37;;;18.50;3.60;;;;;;4976032;28;20207;-82
2023/05/14 16:09:34;;;;;;;18.97;16.93;;;18.50;2.90;;;;;;4979016;28;20249;-79
2023/05/14 16:12:00;;;;;;;23.93;17.30;;;18.60;1.00;;;;;;4977648;28;20186;-80
2023/05/14 16:14:26;;;;;;;20.00;16.97;;;18.60;1.00;;;;;;4977592;28;20174;-79
2023/05/14 16:16:53;;;;;;;22.60;17.57;;;18.40;1.00;;;;;;4978036;28;20196;-82